Exuma International Airport


Codes: MYEF/GGT
Name: Exuma International Airport
City: George Town
Country: Bahamas
Elevation: 9 ft.
Wikipedia:

Photos at Exuma International Airport


   Photos courtesy of SpottingLog. You can add your own sightings and photos by signing up for a free trial today.



No photos found.

Weather at Exuma International Airport


Time (UTC)DescriptionTempratureWindCloud coverageVisibilityPressureHumidity
19-Apr-2024 06:00Overcast Clouds24°C16 mph, E97%10000m1018hPa74%
19-Apr-2024 09:00Scattered Clouds24°C13 mph, E47%10000m1017hPa73%
19-Apr-2024 12:00Scattered Clouds24°C13 mph, E44%10000m1017hPa72%
19-Apr-2024 15:00Scattered Clouds24°C16 mph, E41%10000m1018hPa73%
19-Apr-2024 18:00Scattered Clouds24°C13 mph, E41%10000m1017hPa67%
19-Apr-2024 21:00Clear Sky24°C11 mph, E2%10000m1017hPa66%
20-Apr-2024 00:00Clear Sky24°C13 mph, E4%10000m1018hPa66%
20-Apr-2024 03:00Clear Sky24°C13 mph, E0%10000m1019hPa66%
20-Apr-2024 06:00Clear Sky24°C13 mph, E0%10000m1017hPa69%
20-Apr-2024 09:00Clear Sky24°C13 mph, E0%10000m1017hPa69%
20-Apr-2024 12:00Clear Sky24°C13 mph, E0%10000m1019hPa69%
20-Apr-2024 15:00Clear Sky24°C16 mph, E0%10000m1020hPa67%
20-Apr-2024 18:00Clear Sky25°C13 mph, E0%10000m1019hPa67%
20-Apr-2024 21:00Clear Sky25°C13 mph, E0%10000m1017hPa67%
21-Apr-2024 00:00Clear Sky25°C13 mph, E0%10000m1018hPa67%
21-Apr-2024 03:00Clear Sky25°C16 mph, E0%10000m1019hPa68%
21-Apr-2024 06:00Clear Sky24°C16 mph, E0%10000m1017hPa68%
21-Apr-2024 09:00Clear Sky24°C16 mph, E0%10000m1017hPa68%
21-Apr-2024 12:00Clear Sky25°C16 mph, E0%10000m1018hPa66%
21-Apr-2024 15:00Clear Sky25°C16 mph, E0%10000m1018hPa65%
21-Apr-2024 18:00Clear Sky25°C13 mph, SE6%10000m1017hPa64%
21-Apr-2024 21:00Clear Sky25°C13 mph, E0%10000m1015hPa64%
22-Apr-2024 00:00Clear Sky25°C13 mph, E0%10000m1016hPa65%
22-Apr-2024 03:00Clear Sky25°C16 mph, E2%10000m1016hPa67%
22-Apr-2024 06:00Scattered Clouds25°C13 mph, E34%10000m1015hPa69%
22-Apr-2024 09:00Broken Clouds26°C9 mph, SE70%10000m1014hPa63%
22-Apr-2024 12:00Broken Clouds26°C9 mph, SE77%10000m1016hPa69%
22-Apr-2024 15:00Clear Sky26°C13 mph, SE0%10000m1016hPa73%
22-Apr-2024 18:00Clear Sky26°C9 mph, SE3%10000m1015hPa74%
22-Apr-2024 21:00Clear Sky26°C9 mph, E5%10000m1014hPa75%
23-Apr-2024 00:00Clear Sky25°C11 mph, E2%10000m1015hPa78%
23-Apr-2024 03:00Clear Sky25°C11 mph, E0%10000m1016hPa79%
23-Apr-2024 06:00Clear Sky25°C11 mph, SE1%10000m1015hPa79%
23-Apr-2024 09:00Clear Sky25°C9 mph, SE3%10000m1015hPa79%
23-Apr-2024 12:00Clear Sky25°C7 mph, E2%10000m1016hPa77%
23-Apr-2024 15:00Clear Sky26°C7 mph, E0%10000m1017hPa75%
23-Apr-2024 18:00Clear Sky26°C7 mph, E0%10000m1017hPa73%
23-Apr-2024 21:00Clear Sky26°C9 mph, NE9%10000m1016hPa75%
24-Apr-2024 00:00Clear Sky26°C11 mph, NE10%10000m1017hPa78%
24-Apr-2024 03:00Few Clouds25°C16 mph, NE11%10000m1018hPa81%